createdAt,value
2019-05-19T00:01:53.019Z,36.43
2019-05-19T00:04:18.900Z,37.83
2019-05-19T00:06:44.763Z,37.30
2019-05-19T00:09:10.622Z,36.67
2019-05-19T00:11:36.513Z,35.27
2019-05-19T00:14:02.367Z,37.13
2019-05-19T00:16:28.230Z,35.47
2019-05-19T00:18:54.099Z,40.60
2019-05-19T00:21:19.967Z,36.83
2019-05-19T00:23:45.827Z,37.20
2019-05-19T00:26:11.705Z,38.57
2019-05-19T00:28:37.574Z,37.40
2019-05-19T00:31:04.248Z,38.07
2019-05-19T00:33:30.120Z,39.83
2019-05-19T00:35:55.984Z,39.47
2019-05-19T00:38:21.861Z,39.97
2019-05-19T00:40:47.740Z,39.70
2019-05-19T00:43:13.615Z,39.57
2019-05-19T00:45:39.480Z,38.60
2019-05-19T00:48:05.353Z,37.27
2019-05-19T00:50:31.307Z,38.63
2019-05-19T00:52:57.152Z,39.20
2019-05-19T00:55:23.036Z,39.93
2019-05-19T00:57:49.701Z,40.47
2019-05-19T01:00:15.962Z,39.00
2019-05-19T01:02:41.845Z,40.23
2019-05-19T01:05:08.211Z,39.10
2019-05-19T01:07:34.564Z,41.53
2019-05-19T01:10:00.480Z,40.47
2019-05-19T01:12:26.333Z,39.53
2019-05-19T01:14:52.188Z,38.93
2019-05-19T01:17:18.070Z,39.87
2019-05-19T01:19:55.167Z,39.87
2019-05-19T01:22:11.685Z,37.77
2019-05-19T01:24:37.567Z,38.97
2019-05-19T01:27:03.427Z,38.27
2019-05-19T01:29:29.292Z,39.43
2019-05-19T01:31:55.170Z,42.60
2019-05-19T01:34:21.021Z,39.80
2019-05-19T01:36:46.895Z,40.70
2019-05-19T01:39:12.762Z,41.20
2019-05-19T01:41:38.634Z,42.23
2019-05-19T01:44:04.498Z,45.47
2019-05-19T01:46:30.371Z,43.17
2019-05-19T01:48:56.265Z,44.30
2019-05-19T01:51:22.231Z,43.50
2019-05-19T01:53:48.167Z,42.83
2019-05-19T01:56:14.080Z,40.20
2019-05-19T01:58:39.959Z,42.13
2019-05-19T02:01:05.820Z,42.10
2019-05-19T02:03:31.679Z,38.40
2019-05-19T02:05:57.554Z,41.73
2019-05-19T02:08:23.414Z,43.43
2019-05-19T02:10:49.276Z,43.33
2019-05-19T02:13:15.134Z,45.87
2019-05-19T02:15:41.299Z,44.87
2019-05-19T02:18:07.185Z,47.23
2019-05-19T02:20:33.993Z,50.10
2019-05-19T02:23:00.119Z,48.70
2019-05-19T02:25:25.987Z,47.80
2019-05-19T02:27:51.940Z,50.00
2019-05-19T02:30:18.316Z,49.67
2019-05-19T02:32:44.189Z,50.83
2019-05-19T02:35:10.482Z,51.57
2019-05-19T02:37:36.334Z,50.53
2019-05-19T02:40:04.704Z,51.67
2019-05-19T02:42:33.179Z,52.40
2019-05-19T02:45:01.243Z,53.03
2019-05-19T02:47:28.715Z,53.97
2019-05-19T02:49:56.652Z,53.53
2019-05-19T02:52:25.852Z,53.80
2019-05-19T02:54:53.627Z,54.90
2019-05-19T02:57:19.716Z,55.27
2019-05-19T02:59:45.880Z,55.43
2019-05-19T03:02:13.749Z,50.73
2019-05-19T03:04:39.604Z,53.87
2019-05-19T03:07:05.466Z,55.67
2019-05-19T03:09:31.330Z,55.17
2019-05-19T03:11:57.239Z,55.00
2019-05-19T03:14:23.295Z,55.87
2019-05-19T03:16:49.152Z,56.67
2019-05-19T03:19:15.016Z,56.13
2019-05-19T03:21:40.905Z,56.70
2019-05-19T03:24:06.754Z,55.70
2019-05-19T03:26:32.627Z,55.60
2019-05-19T03:28:58.491Z,55.50
2019-05-19T03:31:26.275Z,54.70
2019-05-19T03:33:54.121Z,55.60
2019-05-19T03:36:19.986Z,53.90
2019-05-19T03:38:45.858Z,54.47
2019-05-19T03:41:11.796Z,54.83
2019-05-19T03:43:37.693Z,55.87
2019-05-19T03:46:03.542Z,53.00
2019-05-19T03:48:31.449Z,56.23
2019-05-19T03:50:57.308Z,54.67
2019-05-19T03:53:23.172Z,54.33
2019-05-19T03:55:49.064Z,56.43
2019-05-19T03:58:14.895Z,57.37
2019-05-19T04:00:40.756Z,55.30
2019-05-19T04:03:06.629Z,53.60
2019-05-19T04:05:32.480Z,53.17
2019-05-19T04:07:58.338Z,56.03
2019-05-19T04:10:24.211Z,55.33
2019-05-19T04:12:50.080Z,54.53
2019-05-19T04:15:16.149Z,53.97
2019-05-19T04:17:42.006Z,54.87
2019-05-19T04:20:08.049Z,53.63
2019-05-19T04:22:33.911Z,54.47
2019-05-19T04:24:59.774Z,56.10
2019-05-19T04:27:25.628Z,53.93
2019-05-19T04:29:51.576Z,55.37
2019-05-19T04:32:17.465Z,54.43
2019-05-19T04:34:44.201Z,55.37
2019-05-19T04:37:10.073Z,55.23
2019-05-19T04:39:35.920Z,54.13
2019-05-19T04:42:01.778Z,54.80
2019-05-19T04:44:27.665Z,55.53
2019-05-19T04:46:53.536Z,55.60
2019-05-19T04:49:19.389Z,52.53
2019-05-19T04:51:45.253Z,55.13
2019-05-19T04:54:11.109Z,53.43
2019-05-19T04:56:36.969Z,54.57
2019-05-19T04:59:03.060Z,52.70
2019-05-19T05:01:28.930Z,52.37
2019-05-19T05:03:54.787Z,55.70
2019-05-19T05:06:20.698Z,51.67
2019-05-19T05:08:46.532Z,54.77
2019-05-19T05:11:12.394Z,53.87
2019-05-19T05:13:38.306Z,54.23
2019-05-19T05:16:04.181Z,54.00
2019-05-19T05:18:30.053Z,52.60
2019-05-19T05:20:55.962Z,53.10
2019-05-19T05:23:21.797Z,52.63
2019-05-19T05:25:47.658Z,51.30
2019-05-19T05:28:13.520Z,53.43
2019-05-19T05:30:39.421Z,51.93
2019-05-19T05:33:05.278Z,51.73
2019-05-19T05:35:31.174Z,51.77
2019-05-19T05:37:57.186Z,50.83
2019-05-19T05:40:23.034Z,51.70
2019-05-19T05:42:49.106Z,48.63
2019-05-19T05:45:15.381Z,51.97
2019-05-19T05:47:41.245Z,50.00
2019-05-19T05:50:08.424Z,49.30
2019-05-19T05:52:38.496Z,48.20
2019-05-19T05:55:03.380Z,48.50
2019-05-19T05:57:29.250Z,49.17
2019-05-19T05:59:55.120Z,45.03
2019-05-19T06:02:21.009Z,47.80
2019-05-19T06:04:46.915Z,46.47
2019-05-19T06:07:12.723Z,47.90
2019-05-19T06:09:38.862Z,47.77
2019-05-19T06:12:04.670Z,46.73
2019-05-19T06:14:30.540Z,46.13
2019-05-19T06:16:56.408Z,47.40
2019-05-19T06:19:22.263Z,47.77
2019-05-19T06:21:48.335Z,47.07
2019-05-19T06:24:14.193Z,47.87
2019-05-19T06:26:40.054Z,45.57
2019-05-19T06:29:05.933Z,49.83
2019-05-19T06:31:31.792Z,47.47
2019-05-19T06:33:57.702Z,46.83
2019-05-19T06:36:23.608Z,47.63
2019-05-19T06:38:50.377Z,47.93
2019-05-19T06:41:16.214Z,46.90
2019-05-19T06:43:42.078Z,45.50
2019-05-19T06:46:07.940Z,48.17
2019-05-19T06:48:33.799Z,45.93
2019-05-19T06:50:59.657Z,47.47
2019-05-19T06:53:25.542Z,47.13
2019-05-19T06:55:51.399Z,47.00
2019-05-19T06:58:17.326Z,45.77
2019-05-19T07:00:43.238Z,48.37
2019-05-19T07:03:09.087Z,47.13
2019-05-19T07:05:35.002Z,43.87
2019-05-19T07:08:00.897Z,44.97
2019-05-19T07:10:26.758Z,45.60
2019-05-19T07:12:52.624Z,45.13
2019-05-19T07:15:18.603Z,45.20
2019-05-19T07:17:44.509Z,45.80
2019-05-19T07:20:10.876Z,44.10
2019-05-19T07:22:37.581Z,43.83
2019-05-19T07:25:05.430Z,45.20
2019-05-19T07:27:31.309Z,46.17
2019-05-19T07:29:57.182Z,42.73
2019-05-19T07:32:23.030Z,45.27
2019-05-19T07:34:48.889Z,44.20
2019-05-19T07:37:14.752Z,44.50
2019-05-19T07:39:41.451Z,44.60
2019-05-19T07:42:07.316Z,45.00
2019-05-19T07:44:33.180Z,45.67
2019-05-19T07:46:59.040Z,44.40
2019-05-19T07:49:24.910Z,42.60
2019-05-19T07:51:50.769Z,43.97
2019-05-19T07:54:16.689Z,43.37
2019-05-19T07:56:42.551Z,42.80
2019-05-19T07:59:08.440Z,44.33
2019-05-19T08:01:34.308Z,43.20
2019-05-19T08:04:00.176Z,43.43
2019-05-19T08:06:26.060Z,44.63
2019-05-19T08:08:51.908Z,40.15
2019-05-19T08:11:17.755Z,39.17
2019-05-19T08:13:43.606Z,41.00
2019-05-19T08:16:09.518Z,40.98
2019-05-19T08:18:35.374Z,40.90
2019-05-19T08:21:01.238Z,38.95
2019-05-19T08:23:27.104Z,40.67
2019-05-19T08:25:52.961Z,37.00
2019-05-19T08:28:18.823Z,39.50
2019-05-19T08:30:44.682Z,38.95
2019-05-19T08:33:10.543Z,39.85
2019-05-19T08:35:36.406Z,38.98
2019-05-19T08:38:02.342Z,38.53
2019-05-19T08:40:28.231Z,38.85
2019-05-19T08:42:54.096Z,36.95
2019-05-19T08:45:19.959Z,40.73
2019-05-19T08:47:45.812Z,37.38
2019-05-19T08:50:12.016Z,36.98
2019-05-19T08:52:37.910Z,36.40
2019-05-19T08:55:04.458Z,35.68
2019-05-19T08:57:30.321Z,34.50
2019-05-19T08:59:56.244Z,35.15
2019-05-19T09:02:22.098Z,34.95
2019-05-19T09:04:47.950Z,35.35
2019-05-19T09:07:13.853Z,35.45
2019-05-19T09:09:39.704Z,32.05
2019-05-19T09:12:05.568Z,33.08
2019-05-19T09:14:31.475Z,32.80
2019-05-19T09:16:57.387Z,32.88
2019-05-19T09:19:23.241Z,32.65
2019-05-19T09:21:49.117Z,31.90
2019-05-19T09:24:29.662Z,30.82
2019-05-19T09:26:42.931Z,32.83
2019-05-19T09:29:08.792Z,32.38
2019-05-19T09:31:34.693Z,33.02
2019-05-19T09:34:00.529Z,32.42
2019-05-19T09:36:26.430Z,31.85
2019-05-19T09:38:52.278Z,31.07
2019-05-19T09:41:18.166Z,32.10
2019-05-19T09:43:44.130Z,31.23
2019-05-19T09:46:09.987Z,29.77
2019-05-19T09:48:35.841Z,32.25
2019-05-19T09:51:01.707Z,29.18
2019-05-19T09:53:27.560Z,30.37
2019-05-19T09:55:53.449Z,30.25
2019-05-19T09:58:20.175Z,27.82
2019-05-19T10:00:46.296Z,28.73
2019-05-19T10:03:12.158Z,28.02
2019-05-19T10:05:38.025Z,29.57
2019-05-19T10:08:03.887Z,29.27
2019-05-19T10:10:53.391Z,28.50
2019-05-19T10:13:19.238Z,28.85
2019-05-19T10:15:45.127Z,28.50
2019-05-19T10:18:10.983Z,27.17
2019-05-19T10:20:36.855Z,26.45
2019-05-19T10:23:02.858Z,25.50
2019-05-19T10:25:28.811Z,28.15
2019-05-19T10:27:54.706Z,28.52
2019-05-19T10:30:20.815Z,28.38
2019-05-19T10:32:46.672Z,29.50
2019-05-19T10:35:12.761Z,29.05
2019-05-19T10:37:38.639Z,27.62
2019-05-19T10:40:05.119Z,27.87
2019-05-19T10:42:30.993Z,28.27
2019-05-19T10:44:56.869Z,29.45
2019-05-19T10:47:22.731Z,30.10
2019-05-19T10:49:48.593Z,29.45
2019-05-19T10:52:14.584Z,28.65
2019-05-19T10:54:40.512Z,30.55
2019-05-19T10:57:06.388Z,28.80
2019-05-19T10:59:32.319Z,28.38
2019-05-19T11:01:58.161Z,28.62
2019-05-19T11:04:24.021Z,27.85
2019-05-19T11:06:49.875Z,28.10
2019-05-19T11:09:15.757Z,28.02
2019-05-19T11:11:41.593Z,28.50
2019-05-19T11:14:07.494Z,28.17
2019-05-19T11:16:33.372Z,27.00
2019-05-19T11:18:59.349Z,27.75
2019-05-19T11:21:25.305Z,28.77
2019-05-19T11:23:51.154Z,28.17
2019-05-19T11:26:17.013Z,27.17
2019-05-19T11:28:42.928Z,25.35
2019-05-19T11:31:08.828Z,25.90
2019-05-19T11:33:34.711Z,26.85
2019-05-19T11:36:00.601Z,25.80
2019-05-19T11:38:26.498Z,25.97
2019-05-19T11:40:52.372Z,25.27
2019-05-19T11:43:18.270Z,27.25
2019-05-19T11:45:44.147Z,26.23
2019-05-19T11:48:10.021Z,26.95
2019-05-19T11:50:35.903Z,24.43
2019-05-19T11:53:01.833Z,26.07
2019-05-19T11:55:27.696Z,25.30
2019-05-19T11:57:53.592Z,26.73
2019-05-19T12:21:53.875Z,25.50
2019-05-19T12:24:19.731Z,25.40
2019-05-19T12:26:45.590Z,29.40
2019-05-19T12:29:11.470Z,28.60
2019-05-19T12:31:37.556Z,27.85
2019-05-19T12:34:03.646Z,28.07
2019-05-19T12:36:29.513Z,28.92
2019-05-19T12:38:55.426Z,28.42
2019-05-19T12:41:21.379Z,28.15
2019-05-19T12:43:47.289Z,26.87
2019-05-19T12:46:16.511Z,27.62
2019-05-19T12:48:41.084Z,28.67
2019-05-19T12:51:07.457Z,28.15
2019-05-19T12:53:33.512Z,25.48
2019-05-19T12:55:59.381Z,26.37
2019-05-19T12:58:25.272Z,27.85
2019-05-19T13:00:53.153Z,25.35
2019-05-19T13:03:19.026Z,26.97
2019-05-19T13:05:44.906Z,26.95
2019-05-19T13:08:11.703Z,26.10
2019-05-19T13:10:37.714Z,26.48
2019-05-19T13:13:03.615Z,26.30
2019-05-19T13:15:29.498Z,26.75
2019-05-19T13:17:55.361Z,25.30
2019-05-19T13:20:24.114Z,25.30
2019-05-19T13:22:50.270Z,25.00
2019-05-19T13:25:16.167Z,25.37
2019-05-19T13:27:42.047Z,26.75
2019-05-19T13:30:08.014Z,25.97
2019-05-19T13:32:33.971Z,24.27
2019-05-19T13:34:59.913Z,23.50
2019-05-19T13:37:25.872Z,22.80
2019-05-19T13:39:51.805Z,22.22
2019-05-19T13:42:17.693Z,20.02
2019-05-19T13:44:43.590Z,19.60
2019-05-19T13:47:09.465Z,20.48
2019-05-19T13:49:35.424Z,18.98
2019-05-19T13:52:01.361Z,19.70
2019-05-19T13:54:27.241Z,19.32
2019-05-19T13:56:53.146Z,19.77
2019-05-19T13:59:19.005Z,19.77
2019-05-19T14:01:44.894Z,20.75
2019-05-19T14:04:10.803Z,21.17
2019-05-19T14:06:36.668Z,18.77
2019-05-19T14:09:04.380Z,19.23
2019-05-19T14:11:30.264Z,21.25
2019-05-19T14:13:56.133Z,19.23
2019-05-19T14:16:22.057Z,20.92
2019-05-19T14:18:47.915Z,21.60
2019-05-19T14:21:13.766Z,25.77
2019-05-19T14:23:39.623Z,22.37
2019-05-19T14:26:05.474Z,22.25
2019-05-19T14:28:31.409Z,24.18
2019-05-19T14:30:57.253Z,21.12
2019-05-19T14:33:23.102Z,22.55
2019-05-19T14:35:49.008Z,23.45
2019-05-19T14:38:14.859Z,24.80
2019-05-19T14:40:42.208Z,23.35
2019-05-19T14:43:08.238Z,23.22
2019-05-19T14:45:34.113Z,27.00
2019-05-19T14:48:00.089Z,23.95
2019-05-19T14:50:26.037Z,22.05
2019-05-19T14:52:51.914Z,22.25
2019-05-19T14:55:17.888Z,22.73
2019-05-19T14:57:45.438Z,22.60
2019-05-19T15:00:13.811Z,23.15
2019-05-19T15:02:39.646Z,24.52
2019-05-19T15:05:06.016Z,23.92
2019-05-19T15:07:31.903Z,25.88
2019-05-19T15:09:57.745Z,25.90
2019-05-19T15:12:23.612Z,25.97
2019-05-19T15:14:49.472Z,28.15
2019-05-19T15:17:15.336Z,28.65
2019-05-19T15:19:41.221Z,27.67
2019-05-19T15:22:07.078Z,28.20
2019-05-19T15:24:32.939Z,28.70
2019-05-19T15:26:58.794Z,29.23
2019-05-19T15:29:24.650Z,29.30
2019-05-19T15:31:50.513Z,31.23
2019-05-19T15:34:16.368Z,31.00
2019-05-19T15:36:42.237Z,28.30
2019-05-19T15:39:08.104Z,28.62
2019-05-19T15:41:34.010Z,28.55
2019-05-19T15:43:59.886Z,28.47
2019-05-19T15:46:26.591Z,27.35
2019-05-19T15:48:52.455Z,23.15
2019-05-19T15:51:28.064Z,18.82
2019-05-19T15:53:46.071Z,15.75
2019-05-19T15:56:11.967Z,17.70
2019-05-19T15:58:37.817Z,20.32
2019-05-19T16:01:03.715Z,20.82
2019-05-19T16:03:29.554Z,21.65
2019-05-19T16:05:55.440Z,22.67
2019-05-19T16:08:21.302Z,14.78
2019-05-19T16:10:47.205Z,12.47
2019-05-19T16:13:13.053Z,12.73
2019-05-19T16:15:38.974Z,10.70
2019-05-19T16:18:04.795Z,9.50
2019-05-19T16:20:30.648Z,8.73
2019-05-19T16:22:56.518Z,8.90
2019-05-19T16:25:22.369Z,9.05
2019-05-19T16:27:48.222Z,11.15
2019-05-19T16:30:14.444Z,13.25
2019-05-19T16:32:40.329Z,12.58
2019-05-19T16:35:06.692Z,12.78
2019-05-19T16:37:32.748Z,13.08
2019-05-19T16:39:58.741Z,13.38
2019-05-19T16:42:24.599Z,16.07
2019-05-19T16:44:50.459Z,20.43
2019-05-19T16:47:16.301Z,21.70
2019-05-19T16:49:42.165Z,26.95
2019-05-19T16:52:08.329Z,26.65
2019-05-19T16:54:36.090Z,30.57
2019-05-19T16:57:01.954Z,27.58
2019-05-19T16:59:27.831Z,30.30
2019-05-19T17:01:53.686Z,32.33
2019-05-19T17:04:19.593Z,35.23
2019-05-19T17:06:45.439Z,33.83
2019-05-19T17:09:11.283Z,34.15
2019-05-19T17:11:37.150Z,35.15
2019-05-19T17:14:03.116Z,33.48
2019-05-19T17:16:29.027Z,33.38
2019-05-19T17:18:54.904Z,33.53
2019-05-19T17:21:20.762Z,34.75
2019-05-19T17:26:13.100Z,32.23
2019-05-19T17:28:39.009Z,34.55
2019-05-19T17:31:07.562Z,31.68
2019-05-19T17:33:32.625Z,29.82
2019-05-19T17:35:58.482Z,31.23
2019-05-19T17:38:24.353Z,31.73
2019-05-19T17:40:50.217Z,29.90
2019-05-19T17:43:16.082Z,30.90
2019-05-19T17:45:41.933Z,35.10
2019-05-19T17:48:10.298Z,32.90
2019-05-19T17:50:35.585Z,32.33
2019-05-19T17:53:01.738Z,31.85
2019-05-19T17:55:28.044Z,31.12
2019-05-19T17:57:56.316Z,30.92
2019-05-19T18:00:34.607Z,30.83
2019-05-19T18:03:00.463Z,32.65
2019-05-19T18:05:26.355Z,32.40
2019-05-19T18:07:52.208Z,33.17
2019-05-19T18:10:18.066Z,31.93
2019-05-19T18:12:43.976Z,30.20
2019-05-19T18:15:09.802Z,30.83
2019-05-19T18:17:35.666Z,30.90
2019-05-19T18:20:03.477Z,31.50
2019-05-19T18:22:29.287Z,30.17
2019-05-19T18:24:55.158Z,32.03
2019-05-19T18:27:21.033Z,30.57
2019-05-19T18:29:46.881Z,31.87
2019-05-19T18:32:12.746Z,31.70
2019-05-19T18:34:38.651Z,31.03
2019-05-19T18:37:04.521Z,32.37
2019-05-19T18:39:30.425Z,31.03
2019-05-19T18:41:56.288Z,28.50
2019-05-19T18:44:22.160Z,31.67
2019-05-19T18:46:48.024Z,32.30
2019-05-19T18:49:13.875Z,28.10
2019-05-19T18:51:39.760Z,32.73
2019-05-19T18:54:05.818Z,32.17
2019-05-19T18:56:31.711Z,33.07
2019-05-19T18:58:57.579Z,32.10
2019-05-19T19:01:23.437Z,31.73
2019-05-19T19:03:49.426Z,32.37
2019-05-19T19:06:15.295Z,29.73
2019-05-19T19:08:41.153Z,31.63
2019-05-19T19:11:07.030Z,33.03
2019-05-19T19:13:32.889Z,31.93
2019-05-19T19:15:58.753Z,30.93
2019-05-19T19:18:24.606Z,32.33
2019-05-19T19:20:50.492Z,32.67
2019-05-19T19:23:16.353Z,31.77
2019-05-19T19:25:42.274Z,34.90
2019-05-19T19:28:08.137Z,31.80
2019-05-19T19:30:34.013Z,32.30
2019-05-19T19:32:59.881Z,30.93
2019-05-19T19:35:25.783Z,32.80
2019-05-19T19:37:51.622Z,35.27
2019-05-19T19:40:26.619Z,34.20
2019-05-19T19:42:52.487Z,32.42
2019-05-19T19:45:18.386Z,33.77
2019-05-19T19:47:44.240Z,35.90
2019-05-19T19:50:10.097Z,34.00
2019-05-19T19:52:35.968Z,35.33
2019-05-19T19:55:03.036Z,36.63
2019-05-19T19:57:28.892Z,36.30
2019-05-19T19:59:54.755Z,35.23
2019-05-19T20:02:20.620Z,35.93
2019-05-19T20:04:46.492Z,35.43
2019-05-19T20:07:12.372Z,35.20
2019-05-19T20:09:38.233Z,35.43
2019-05-19T20:12:04.089Z,34.97
2019-05-19T20:14:29.957Z,35.67
2019-05-19T20:16:55.852Z,35.70
2019-05-19T20:19:21.868Z,34.40
2019-05-19T20:21:47.706Z,34.03
2019-05-19T20:24:13.570Z,32.00
2019-05-19T20:26:39.456Z,30.90
2019-05-19T20:29:05.353Z,31.30
2019-05-19T20:31:31.574Z,31.03
2019-05-19T20:33:57.484Z,33.10
2019-05-19T20:36:23.411Z,34.37
2019-05-19T20:38:49.235Z,31.93
2019-05-19T20:41:15.098Z,30.93
2019-05-19T20:43:40.967Z,31.30
2019-05-19T20:46:06.868Z,30.20
2019-05-19T20:48:33.001Z,28.23
2019-05-19T20:50:58.886Z,28.57
2019-05-19T20:53:24.878Z,26.90
2019-05-19T20:55:50.707Z,25.60
2019-05-19T20:58:16.576Z,24.90
2019-05-19T21:00:50.383Z,28.60
2019-05-19T21:03:10.214Z,27.60
2019-05-19T21:05:36.079Z,28.93
2019-05-19T21:08:01.973Z,31.70
2019-05-19T21:10:27.817Z,32.07
2019-05-19T21:12:53.682Z,31.27
2019-05-19T21:15:19.551Z,31.47
2019-05-19T21:17:45.424Z,31.90
2019-05-19T21:20:11.285Z,31.57
2019-05-19T21:22:37.138Z,32.83
2019-05-19T21:25:05.705Z,31.07
2019-05-19T21:27:31.559Z,33.57
2019-05-19T21:29:57.407Z,34.17
2019-05-19T21:32:23.268Z,32.40
2019-05-19T21:34:49.135Z,30.73
2019-05-19T21:37:15.005Z,30.43
2019-05-19T21:39:40.856Z,30.20
2019-05-19T21:42:06.704Z,30.40
2019-05-19T21:44:32.573Z,29.93
2019-05-19T21:46:58.429Z,29.83
2019-05-19T21:49:24.287Z,29.57
2019-05-19T21:51:50.155Z,28.43
2019-05-19T21:54:16.042Z,27.13
2019-05-19T21:56:41.907Z,28.73
2019-05-19T21:59:07.769Z,28.27
2019-05-19T22:01:33.618Z,27.27
2019-05-19T22:03:59.476Z,28.30
2019-05-19T22:06:27.255Z,28.33
2019-05-19T22:08:53.133Z,28.20
2019-05-19T22:11:18.990Z,26.97
2019-05-19T22:13:44.861Z,27.90
2019-05-19T22:16:13.402Z,29.43
2019-05-19T22:18:38.462Z,28.97
2019-05-19T22:21:04.330Z,28.80
2019-05-19T22:23:30.204Z,26.13
2019-05-19T22:25:56.078Z,28.47
2019-05-19T22:28:22.008Z,28.57
2019-05-19T22:30:47.848Z,26.20
2019-05-19T22:33:13.721Z,27.90
2019-05-19T22:35:39.597Z,26.63
2019-05-19T22:38:05.447Z,27.33
2019-05-19T22:40:31.312Z,26.80
2019-05-19T22:42:57.166Z,28.17
2019-05-19T22:45:23.334Z,25.63
2019-05-19T22:47:49.198Z,26.97
2019-05-19T22:50:15.473Z,26.77
2019-05-19T22:52:41.332Z,25.33
2019-05-19T22:55:08.023Z,25.77
2019-05-19T22:57:33.874Z,26.60
2019-05-19T22:59:59.738Z,24.80
2019-05-19T23:02:25.598Z,28.00
2019-05-19T23:04:51.509Z,25.77
2019-05-19T23:07:17.376Z,26.80
2019-05-19T23:09:43.244Z,25.33
2019-05-19T23:12:09.105Z,23.60
2019-05-19T23:14:34.970Z,25.30
2019-05-19T23:17:00.917Z,25.87
2019-05-19T23:19:26.766Z,24.87
2019-05-19T23:21:52.638Z,24.10
2019-05-19T23:24:18.525Z,22.83
2019-05-19T23:26:44.376Z,23.13
2019-05-19T23:29:10.238Z,23.03
2019-05-19T23:31:36.100Z,25.10
2019-05-19T23:34:01.969Z,25.67
2019-05-19T23:36:27.833Z,25.93
2019-05-19T23:38:53.685Z,23.23
2019-05-19T23:41:19.555Z,24.10
2019-05-19T23:43:45.438Z,25.60
2019-05-19T23:46:11.300Z,25.00
2019-05-19T23:48:37.166Z,26.27
2019-05-19T23:51:03.057Z,27.40
2019-05-19T23:53:28.919Z,26.53
2019-05-19T23:55:54.796Z,26.13
2019-05-19T23:58:20.668Z,26.53
